sensor_id;sensor_type;location;lat;lon;timestamp;temperature;humidity
72940;DHT22;61094;51.154;13.570;2022-08-05T00:01:00;27.30;31.70
72940;DHT22;61094;51.154;13.570;2022-08-05T00:03:26;27.30;31.70
72940;DHT22;61094;51.154;13.570;2022-08-05T00:05:53;27.30;31.60
72940;DHT22;61094;51.154;13.570;2022-08-05T00:08:20;27.20;31.90
72940;DHT22;61094;51.154;13.570;2022-08-05T00:10:47;27.10;31.90
72940;DHT22;61094;51.154;13.570;2022-08-05T00:13:13;27.00;31.90
72940;DHT22;61094;51.154;13.570;2022-08-05T00:15:41;27.00;31.90
72940;DHT22;61094;51.154;13.570;2022-08-05T00:18:08;26.90;32.20
72940;DHT22;61094;51.154;13.570;2022-08-05T00:20:35;26.90;32.20
72940;DHT22;61094;51.154;13.570;2022-08-05T00:23:02;26.90;32.50
72940;DHT22;61094;51.154;13.570;2022-08-05T00:25:28;26.80;32.50
72940;DHT22;61094;51.154;13.570;2022-08-05T00:27:55;26.80;32.40
72940;DHT22;61094;51.154;13.570;2022-08-05T00:30:21;26.80;32.30
72940;DHT22;61094;51.154;13.570;2022-08-05T00:32:49;26.70;32.40
72940;DHT22;61094;51.154;13.570;2022-08-05T00:35:16;26.70;32.50
72940;DHT22;61094;51.154;13.570;2022-08-05T00:37:43;26.60;32.80
72940;DHT22;61094;51.154;13.570;2022-08-05T00:40:10;26.60;32.60
72940;DHT22;61094;51.154;13.570;2022-08-05T00:42:38;26.50;32.60
72940;DHT22;61094;51.154;13.570;2022-08-05T00:45:07;26.50;32.60
72940;DHT22;61094;51.154;13.570;2022-08-05T00:47:34;26.50;32.80
72940;DHT22;61094;51.154;13.570;2022-08-05T00:50:03;26.50;32.80
72940;DHT22;61094;51.154;13.570;2022-08-05T00:52:29;26.40;32.80
72940;DHT22;61094;51.154;13.570;2022-08-05T00:54:56;26.40;33.00
72940;DHT22;61094;51.154;13.570;2022-08-05T00:57:25;26.30;33.30
72940;DHT22;61094;51.154;13.570;2022-08-05T00:59:52;26.30;33.40
72940;DHT22;61094;51.154;13.570;2022-08-05T01:02:18;26.30;33.20
72940;DHT22;61094;51.154;13.570;2022-08-05T01:04:45;26.20;33.20
72940;DHT22;61094;51.154;13.570;2022-08-05T01:07:13;26.20;33.80
72940;DHT22;61094;51.154;13.570;2022-08-05T01:09:40;26.10;33.30
72940;DHT22;61094;51.154;13.570;2022-08-05T01:12:09;26.10;33.50
72940;DHT22;61094;51.154;13.570;2022-08-05T01:14:44;26.10;33.50
72940;DHT22;61094;51.154;13.570;2022-08-05T01:17:19;26.00;33.60
72940;DHT22;61094;51.154;13.570;2022-08-05T01:19:52;26.00;34.00
72940;DHT22;61094;51.154;13.570;2022-08-05T01:22:37;25.90;33.80
72940;DHT22;61094;51.154;13.570;2022-08-05T01:25:33;25.90;34.40
72940;DHT22;61094;51.154;13.570;2022-08-05T01:28:17;25.90;34.80
72940;DHT22;61094;51.154;13.570;2022-08-05T01:30:58;25.80;35.40
72940;DHT22;61094;51.154;13.570;2022-08-05T01:33:31;25.80;35.40
72940;DHT22;61094;51.154;13.570;2022-08-05T01:36:02;25.70;34.20
72940;DHT22;61094;51.154;13.570;2022-08-05T01:38:32;25.60;34.40
72940;DHT22;61094;51.154;13.570;2022-08-05T01:41:00;25.60;34.10
72940;DHT22;61094;51.154;13.570;2022-08-05T01:43:29;25.60;34.10
72940;DHT22;61094;51.154;13.570;2022-08-05T01:45:58;25.60;34.30
72940;DHT22;61094;51.154;13.570;2022-08-05T01:48:25;25.60;34.20
72940;DHT22;61094;51.154;13.570;2022-08-05T01:50:54;25.50;34.20
72940;DHT22;61094;51.154;13.570;2022-08-05T01:53:22;25.50;34.40
72940;DHT22;61094;51.154;13.570;2022-08-05T01:55:50;25.40;34.60
72940;DHT22;61094;51.154;13.570;2022-08-05T01:58:21;25.40;34.60
72940;DHT22;61094;51.154;13.570;2022-08-05T02:00:53;25.40;34.60
72940;DHT22;61094;51.154;13.570;2022-08-05T02:03:24;25.30;35.90
72940;DHT22;61094;51.154;13.570;2022-08-05T02:05:53;25.30;34.70
72940;DHT22;61094;51.154;13.570;2022-08-05T02:08:21;25.30;34.80
72940;DHT22;61094;51.154;13.570;2022-08-05T02:10:50;25.20;34.80
72940;DHT22;61094;51.154;13.570;2022-08-05T02:13:24;25.20;35.00
72940;DHT22;61094;51.154;13.570;2022-08-05T02:16:00;25.20;35.10
72940;DHT22;61094;51.154;13.570;2022-08-05T02:18:32;25.20;34.90
72940;DHT22;61094;51.154;13.570;2022-08-05T02:21:05;25.10;34.90
72940;DHT22;61094;51.154;13.570;2022-08-05T02:23:36;25.10;34.90
72940;DHT22;61094;51.154;13.570;2022-08-05T02:26:05;25.10;35.10
72940;DHT22;61094;51.154;13.570;2022-08-05T02:28:36;25.00;35.00
72940;DHT22;61094;51.154;13.570;2022-08-05T02:31:08;25.00;35.20
72940;DHT22;61094;51.154;13.570;2022-08-05T02:33:39;25.00;35.40
72940;DHT22;61094;51.154;13.570;2022-08-05T02:36:10;24.90;35.20
72940;DHT22;61094;51.154;13.570;2022-08-05T02:38:39;24.90;35.20
72940;DHT22;61094;51.154;13.570;2022-08-05T02:41:08;24.90;35.30
72940;DHT22;61094;51.154;13.570;2022-08-05T02:43:40;24.80;35.20
72940;DHT22;61094;51.154;13.570;2022-08-05T02:46:09;24.80;35.50
72940;DHT22;61094;51.154;13.570;2022-08-05T02:48:38;24.80;35.60
72940;DHT22;61094;51.154;13.570;2022-08-05T02:51:05;24.70;35.60
72940;DHT22;61094;51.154;13.570;2022-08-05T02:53:33;24.60;35.80
72940;DHT22;61094;51.154;13.570;2022-08-05T02:56:01;24.50;36.10
72940;DHT22;61094;51.154;13.570;2022-08-05T02:58:28;24.40;36.30
72940;DHT22;61094;51.154;13.570;2022-08-05T03:00:59;24.30;36.40
72940;DHT22;61094;51.154;13.570;2022-08-05T03:03:28;24.20;36.30
72940;DHT22;61094;51.154;13.570;2022-08-05T03:05:56;24.10;36.80
72940;DHT22;61094;51.154;13.570;2022-08-05T03:08:23;24.00;37.30
72940;DHT22;61094;51.154;13.570;2022-08-05T03:10:50;23.90;37.10
72940;DHT22;61094;51.154;13.570;2022-08-05T03:13:17;23.80;37.10
72940;DHT22;61094;51.154;13.570;2022-08-05T03:15:45;23.80;37.70
72940;DHT22;61094;51.154;13.570;2022-08-05T03:18:12;23.70;37.30
72940;DHT22;61094;51.154;13.570;2022-08-05T03:20:40;23.70;37.60
72940;DHT22;61094;51.154;13.570;2022-08-05T03:23:09;23.60;38.10
72940;DHT22;61094;51.154;13.570;2022-08-05T03:25:38;23.60;37.60
72940;DHT22;61094;51.154;13.570;2022-08-05T03:28:07;23.50;37.80
72940;DHT22;61094;51.154;13.570;2022-08-05T03:30:34;23.50;38.00
72940;DHT22;61094;51.154;13.570;2022-08-05T03:33:03;23.40;38.20
72940;DHT22;61094;51.154;13.570;2022-08-05T03:35:30;23.40;38.10
72940;DHT22;61094;51.154;13.570;2022-08-05T03:38:00;23.40;38.50
72940;DHT22;61094;51.154;13.570;2022-08-05T03:40:27;23.30;38.00
72940;DHT22;61094;51.154;13.570;2022-08-05T03:42:54;23.30;38.40
72940;DHT22;61094;51.154;13.570;2022-08-05T03:45:21;23.30;38.60
72940;DHT22;61094;51.154;13.570;2022-08-05T03:47:48;23.20;39.10
72940;DHT22;61094;51.154;13.570;2022-08-05T03:50:14;23.20;38.50
72940;DHT22;61094;51.154;13.570;2022-08-05T03:52:47;23.20;38.70
72940;DHT22;61094;51.154;13.570;2022-08-05T03:55:22;23.20;38.40
72940;DHT22;61094;51.154;13.570;2022-08-05T03:57:50;23.20;39.00
72940;DHT22;61094;51.154;13.570;2022-08-05T04:00:18;23.20;41.80
72940;DHT22;61094;51.154;13.570;2022-08-05T04:02:50;23.10;38.80
72940;DHT22;61094;51.154;13.570;2022-08-05T04:05:18;23.10;39.00
72940;DHT22;61094;51.154;13.570;2022-08-05T04:07:45;23.00;39.30
72940;DHT22;61094;51.154;13.570;2022-08-05T04:10:12;23.00;38.80
72940;DHT22;61094;51.154;13.570;2022-08-05T04:12:41;23.00;38.70
72940;DHT22;61094;51.154;13.570;2022-08-05T04:15:09;23.00;39.30
72940;DHT22;61094;51.154;13.570;2022-08-05T04:17:36;22.90;41.30
72940;DHT22;61094;51.154;13.570;2022-08-05T04:20:04;22.90;39.80
72940;DHT22;61094;51.154;13.570;2022-08-05T04:22:31;22.80;40.50
72940;DHT22;61094;51.154;13.570;2022-08-05T04:24:58;22.70;40.10
72940;DHT22;61094;51.154;13.570;2022-08-05T04:27:24;22.70;40.00
72940;DHT22;61094;51.154;13.570;2022-08-05T04:29:52;22.70;40.50
72940;DHT22;61094;51.154;13.570;2022-08-05T04:32:19;22.70;40.20
72940;DHT22;61094;51.154;13.570;2022-08-05T04:34:45;22.70;39.80
72940;DHT22;61094;51.154;13.570;2022-08-05T04:37:12;22.80;40.10
72940;DHT22;61094;51.154;13.570;2022-08-05T04:39:39;22.80;39.70
72940;DHT22;61094;51.154;13.570;2022-08-05T04:42:06;22.90;39.90
72940;DHT22;61094;51.154;13.570;2022-08-05T04:44:33;23.00;40.30
72940;DHT22;61094;51.154;13.570;2022-08-05T04:47:01;23.00;39.80
72940;DHT22;61094;51.154;13.570;2022-08-05T04:49:28;23.00;40.20
72940;DHT22;61094;51.154;13.570;2022-08-05T04:51:54;23.10;41.00
72940;DHT22;61094;51.154;13.570;2022-08-05T04:54:21;23.10;39.60
72940;DHT22;61094;51.154;13.570;2022-08-05T04:56:51;23.10;39.30
72940;DHT22;61094;51.154;13.570;2022-08-05T04:59:18;23.20;39.30
72940;DHT22;61094;51.154;13.570;2022-08-05T05:01:46;23.30;39.20
72940;DHT22;61094;51.154;13.570;2022-08-05T05:04:14;23.30;39.00
72940;DHT22;61094;51.154;13.570;2022-08-05T05:06:41;23.30;39.00
72940;DHT22;61094;51.154;13.570;2022-08-05T05:09:08;23.50;38.90
72940;DHT22;61094;51.154;13.570;2022-08-05T05:11:35;23.50;38.90
72940;DHT22;61094;51.154;13.570;2022-08-05T05:14:02;23.60;38.80
72940;DHT22;61094;51.154;13.570;2022-08-05T05:16:28;23.70;38.60
72940;DHT22;61094;51.154;13.570;2022-08-05T05:18:55;23.70;39.00
72940;DHT22;61094;51.154;13.570;2022-08-05T05:21:23;23.80;38.80
72940;DHT22;61094;51.154;13.570;2022-08-05T05:23:50;23.90;38.60
72940;DHT22;61094;51.154;13.570;2022-08-05T05:26:16;24.00;38.40
72940;DHT22;61094;51.154;13.570;2022-08-05T05:28:43;24.10;38.70
72940;DHT22;61094;51.154;13.570;2022-08-05T05:31:10;24.20;38.50
72940;DHT22;61094;51.154;13.570;2022-08-05T05:33:36;24.20;38.80
72940;DHT22;61094;51.154;13.570;2022-08-05T05:36:03;24.40;38.20
72940;DHT22;61094;51.154;13.570;2022-08-05T05:38:31;24.50;38.10
72940;DHT22;61094;51.154;13.570;2022-08-05T05:40:58;24.60;38.10
72940;DHT22;61094;51.154;13.570;2022-08-05T05:43:25;24.70;37.80
72940;DHT22;61094;51.154;13.570;2022-08-05T05:45:51;24.80;37.60
72940;DHT22;61094;51.154;13.570;2022-08-05T05:48:19;24.90;37.60
72940;DHT22;61094;51.154;13.570;2022-08-05T05:50:45;25.00;37.60
72940;DHT22;61094;51.154;13.570;2022-08-05T05:53:12;25.10;37.20
72940;DHT22;61094;51.154;13.570;2022-08-05T05:55:41;25.10;37.50
72940;DHT22;61094;51.154;13.570;2022-08-05T05:58:08;25.20;37.00
72940;DHT22;61094;51.154;13.570;2022-08-05T06:00:34;25.30;36.90
72940;DHT22;61094;51.154;13.570;2022-08-05T06:03:01;25.40;37.00
72940;DHT22;61094;51.154;13.570;2022-08-05T06:05:28;25.40;37.40
72940;DHT22;61094;51.154;13.570;2022-08-05T06:07:54;25.40;37.80
72940;DHT22;61094;51.154;13.570;2022-08-05T06:10:21;25.50;37.50
72940;DHT22;61094;51.154;13.570;2022-08-05T06:12:49;25.50;37.60
72940;DHT22;61094;51.154;13.570;2022-08-05T06:15:16;25.50;37.90
72940;DHT22;61094;51.154;13.570;2022-08-05T06:17:42;25.60;37.30
72940;DHT22;61094;51.154;13.570;2022-08-05T06:20:09;25.50;37.20
72940;DHT22;61094;51.154;13.570;2022-08-05T06:22:36;25.60;37.70
72940;DHT22;61094;51.154;13.570;2022-08-05T06:25:04;25.60;38.00
72940;DHT22;61094;51.154;13.570;2022-08-05T06:27:32;25.60;37.90
72940;DHT22;61094;51.154;13.570;2022-08-05T06:30:00;25.60;38.30
72940;DHT22;61094;51.154;13.570;2022-08-05T06:32:27;25.70;38.70
72940;DHT22;61094;51.154;13.570;2022-08-05T06:34:54;25.70;39.00
72940;DHT22;61094;51.154;13.570;2022-08-05T06:37:21;25.80;39.80
72940;DHT22;61094;51.154;13.570;2022-08-05T06:39:48;25.80;39.60
72940;DHT22;61094;51.154;13.570;2022-08-05T06:42:15;25.90;39.30
72940;DHT22;61094;51.154;13.570;2022-08-05T06:44:41;25.90;39.50
72940;DHT22;61094;51.154;13.570;2022-08-05T06:47:09;26.00;40.20
72940;DHT22;61094;51.154;13.570;2022-08-05T06:49:36;26.00;40.20
72940;DHT22;61094;51.154;13.570;2022-08-05T06:52:03;26.00;39.80
72940;DHT22;61094;51.154;13.570;2022-08-05T06:54:30;26.00;40.20
72940;DHT22;61094;51.154;13.570;2022-08-05T06:56:57;26.00;39.80
72940;DHT22;61094;51.154;13.570;2022-08-05T06:59:23;26.00;40.50
72940;DHT22;61094;51.154;13.570;2022-08-05T07:01:50;26.00;41.30
72940;DHT22;61094;51.154;13.570;2022-08-05T07:04:18;26.00;41.60
72940;DHT22;61094;51.154;13.570;2022-08-05T07:06:44;25.90;40.90
72940;DHT22;61094;51.154;13.570;2022-08-05T07:09:11;25.90;41.00
72940;DHT22;61094;51.154;13.570;2022-08-05T07:11:37;26.00;41.90
72940;DHT22;61094;51.154;13.570;2022-08-05T07:14:04;26.00;41.90
72940;DHT22;61094;51.154;13.570;2022-08-05T07:16:48;26.00;42.40
72940;DHT22;61094;51.154;13.570;2022-08-05T07:19:16;26.10;42.80
72940;DHT22;61094;51.154;13.570;2022-08-05T07:21:45;26.30;42.60
72940;DHT22;61094;51.154;13.570;2022-08-05T07:24:12;26.60;42.20
72940;DHT22;61094;51.154;13.570;2022-08-05T07:26:39;26.90;42.70
72940;DHT22;61094;51.154;13.570;2022-08-05T07:29:07;27.20;41.70
72940;DHT22;61094;51.154;13.570;2022-08-05T07:31:34;27.50;41.60
72940;DHT22;61094;51.154;13.570;2022-08-05T07:34:01;27.70;41.70
72940;DHT22;61094;51.154;13.570;2022-08-05T07:36:28;28.00;41.70
72940;DHT22;61094;51.154;13.570;2022-08-05T07:38:56;28.20;41.50
72940;DHT22;61094;51.154;13.570;2022-08-05T07:41:23;28.40;41.50
72940;DHT22;61094;51.154;13.570;2022-08-05T07:43:50;28.50;41.30
72940;DHT22;61094;51.154;13.570;2022-08-05T07:46:17;28.60;41.20
72940;DHT22;61094;51.154;13.570;2022-08-05T07:48:44;28.80;42.70
72940;DHT22;61094;51.154;13.570;2022-08-05T07:51:11;28.80;41.30
72940;DHT22;61094;51.154;13.570;2022-08-05T07:53:40;28.90;41.30
72940;DHT22;61094;51.154;13.570;2022-08-05T07:56:08;29.00;40.90
72940;DHT22;61094;51.154;13.570;2022-08-05T07:58:34;29.20;41.10
72940;DHT22;61094;51.154;13.570;2022-08-05T08:01:01;29.30;40.80
72940;DHT22;61094;51.154;13.570;2022-08-05T08:03:28;29.30;40.80
72940;DHT22;61094;51.154;13.570;2022-08-05T08:05:55;29.30;40.70
72940;DHT22;61094;51.154;13.570;2022-08-05T08:08:21;29.30;40.70
72940;DHT22;61094;51.154;13.570;2022-08-05T08:10:48;29.30;40.70
72940;DHT22;61094;51.154;13.570;2022-08-05T08:13:16;29.30;40.70
72940;DHT22;61094;51.154;13.570;2022-08-05T08:15:43;29.30;40.50
72940;DHT22;61094;51.154;13.570;2022-08-05T08:18:10;29.40;40.50
72940;DHT22;61094;51.154;13.570;2022-08-05T08:20:36;29.40;40.50
72940;DHT22;61094;51.154;13.570;2022-08-05T08:23:03;29.50;40.50
72940;DHT22;61094;51.154;13.570;2022-08-05T08:25:32;29.70;40.20
72940;DHT22;61094;51.154;13.570;2022-08-05T08:27:59;29.80;40.20
72940;DHT22;61094;51.154;13.570;2022-08-05T08:30:27;29.90;40.20
72940;DHT22;61094;51.154;13.570;2022-08-05T08:32:53;30.00;39.90
72940;DHT22;61094;51.154;13.570;2022-08-05T08:35:20;30.20;40.00
72940;DHT22;61094;51.154;13.570;2022-08-05T08:37:47;30.30;40.40
72940;DHT22;61094;51.154;13.570;2022-08-05T08:40:13;30.40;39.50
72940;DHT22;61094;51.154;13.570;2022-08-05T08:42:41;30.60;39.40
72940;DHT22;61094;51.154;13.570;2022-08-05T08:45:10;30.70;39.10
72940;DHT22;61094;51.154;13.570;2022-08-05T08:47:39;30.80;39.10
72940;DHT22;61094;51.154;13.570;2022-08-05T08:50:07;30.80;39.10
72940;DHT22;61094;51.154;13.570;2022-08-05T08:52:37;30.80;39.00
72940;DHT22;61094;51.154;13.570;2022-08-05T08:55:04;30.90;39.00
72940;DHT22;61094;51.154;13.570;2022-08-05T08:57:33;31.00;38.90
72940;DHT22;61094;51.154;13.570;2022-08-05T08:59:59;31.20;38.80
72940;DHT22;61094;51.154;13.570;2022-08-05T09:02:26;31.40;38.60
72940;DHT22;61094;51.154;13.570;2022-08-05T09:04:54;31.60;38.10
72940;DHT22;61094;51.154;13.570;2022-08-05T09:07:21;31.70;38.10
72940;DHT22;61094;51.154;13.570;2022-08-05T09:09:48;31.80;38.10
72940;DHT22;61094;51.154;13.570;2022-08-05T09:12:14;31.90;37.90
72940;DHT22;61094;51.154;13.570;2022-08-05T09:14:41;32.00;37.80
72940;DHT22;61094;51.154;13.570;2022-08-05T09:17:09;32.10;37.60
72940;DHT22;61094;51.154;13.570;2022-08-05T09:19:37;32.20;37.60
72940;DHT22;61094;51.154;13.570;2022-08-05T09:22:05;32.30;37.40
72940;DHT22;61094;51.154;13.570;2022-08-05T09:24:34;32.50;37.30
72940;DHT22;61094;51.154;13.570;2022-08-05T09:27:01;32.60;37.10
72940;DHT22;61094;51.154;13.570;2022-08-05T09:29:37;32.50;37.10
72940;DHT22;61094;51.154;13.570;2022-08-05T09:32:07;32.50;37.10
72940;DHT22;61094;51.154;13.570;2022-08-05T09:34:51;32.40;37.00
72940;DHT22;61094;51.154;13.570;2022-08-05T09:37:21;32.40;36.90
72940;DHT22;61094;51.154;13.570;2022-08-05T09:39:49;32.60;37.10
72940;DHT22;61094;51.154;13.570;2022-08-05T09:42:17;32.90;36.90
72940;DHT22;61094;51.154;13.570;2022-08-05T09:44:45;33.20;36.70
72940;DHT22;61094;51.154;13.570;2022-08-05T09:47:14;33.40;36.50
72940;DHT22;61094;51.154;13.570;2022-08-05T09:49:45;33.50;36.30
72940;DHT22;61094;51.154;13.570;2022-08-05T09:52:23;33.60;36.30
72940;DHT22;61094;51.154;13.570;2022-08-05T09:54:52;33.80;35.20
72940;DHT22;61094;51.154;13.570;2022-08-05T09:57:28;34.00;36.20
72940;DHT22;61094;51.154;13.570;2022-08-05T09:59:57;34.30;35.80
72940;DHT22;61094;51.154;13.570;2022-08-05T10:02:30;34.70;35.70
72940;DHT22;61094;51.154;13.570;2022-08-05T10:05:04;35.10;34.40
72940;DHT22;61094;51.154;13.570;2022-08-05T10:07:50;35.30;34.70
72940;DHT22;61094;51.154;13.570;2022-08-05T10:10:18;35.70;34.20
72940;DHT22;61094;51.154;13.570;2022-08-05T10:12:48;35.80;33.60
72940;DHT22;61094;51.154;13.570;2022-08-05T10:15:18;35.90;33.80
72940;DHT22;61094;51.154;13.570;2022-08-05T10:18:05;36.00;33.50
72940;DHT22;61094;51.154;13.570;2022-08-05T10:20:34;36.30;32.50
72940;DHT22;61094;51.154;13.570;2022-08-05T10:23:02;36.30;33.00
72940;DHT22;61094;51.154;13.570;2022-08-05T10:25:29;36.30;33.00
72940;DHT22;61094;51.154;13.570;2022-08-05T10:27:56;36.40;33.80
72940;DHT22;61094;51.154;13.570;2022-08-05T10:30:23;36.40;32.50
72940;DHT22;61094;51.154;13.570;2022-08-05T10:32:51;36.30;32.60
72940;DHT22;61094;51.154;13.570;2022-08-05T10:35:19;36.40;32.50
72940;DHT22;61094;51.154;13.570;2022-08-05T10:37:46;36.40;32.60
72940;DHT22;61094;51.154;13.570;2022-08-05T10:40:25;36.40;32.30
72940;DHT22;61094;51.154;13.570;2022-08-05T10:42:57;36.30;31.60
72940;DHT22;61094;51.154;13.570;2022-08-05T10:45:25;36.20;32.40
72940;DHT22;61094;51.154;13.570;2022-08-05T10:47:52;36.10;32.50
72940;DHT22;61094;51.154;13.570;2022-08-05T10:50:19;36.00;30.70
72940;DHT22;61094;51.154;13.570;2022-08-05T10:52:47;36.10;32.70
72940;DHT22;61094;51.154;13.570;2022-08-05T10:55:23;36.20;32.40
72940;DHT22;61094;51.154;13.570;2022-08-05T10:58:05;36.50;32.00
72940;DHT22;61094;51.154;13.570;2022-08-05T11:00:33;36.70;30.80
72940;DHT22;61094;51.154;13.570;2022-08-05T11:03:11;36.90;31.60
72940;DHT22;61094;51.154;13.570;2022-08-05T11:05:39;37.10;31.60
72940;DHT22;61094;51.154;13.570;2022-08-05T11:08:07;37.20;31.40
72940;DHT22;61094;51.154;13.570;2022-08-05T11:10:35;37.20;31.30
72940;DHT22;61094;51.154;13.570;2022-08-05T11:13:04;37.30;32.00
72940;DHT22;61094;51.154;13.570;2022-08-05T11:15:34;37.10;31.30
72940;DHT22;61094;51.154;13.570;2022-08-05T11:18:12;37.20;31.40
72940;DHT22;61094;51.154;13.570;2022-08-05T11:20:48;37.20;30.70
72940;DHT22;61094;51.154;13.570;2022-08-05T11:23:35;37.20;30.80
72940;DHT22;61094;51.154;13.570;2022-08-05T11:26:05;37.20;30.30
72940;DHT22;61094;51.154;13.570;2022-08-05T11:28:37;37.30;31.00
72940;DHT22;61094;51.154;13.570;2022-08-05T11:31:34;37.50;30.90
72940;DHT22;61094;51.154;13.570;2022-08-05T11:34:03;37.60;29.40
72940;DHT22;61094;51.154;13.570;2022-08-05T11:36:39;37.80;30.70
72940;DHT22;61094;51.154;13.570;2022-08-05T11:39:06;37.80;30.00
72940;DHT22;61094;51.154;13.570;2022-08-05T11:41:35;37.80;30.60
72940;DHT22;61094;51.154;13.570;2022-08-05T11:44:03;37.80;30.50
72940;DHT22;61094;51.154;13.570;2022-08-05T11:46:33;37.90;30.30
72940;DHT22;61094;51.154;13.570;2022-08-05T11:49:04;38.00;30.40
72940;DHT22;61094;51.154;13.570;2022-08-05T11:51:31;38.10;30.00
72940;DHT22;61094;51.154;13.570;2022-08-05T11:53:58;38.20;30.00
72940;DHT22;61094;51.154;13.570;2022-08-05T11:56:43;38.20;30.00
72940;DHT22;61094;51.154;13.570;2022-08-05T11:59:14;38.20;29.50
72940;DHT22;61094;51.154;13.570;2022-08-05T12:01:56;38.30;30.00
72940;DHT22;61094;51.154;13.570;2022-08-05T12:04:23;38.30;29.70
72940;DHT22;61094;51.154;13.570;2022-08-05T12:06:50;38.30;29.60
72940;DHT22;61094;51.154;13.570;2022-08-05T12:09:20;38.30;29.80
72940;DHT22;61094;51.154;13.570;2022-08-05T12:11:50;38.40;29.40
72940;DHT22;61094;51.154;13.570;2022-08-05T12:14:17;38.60;29.50
72940;DHT22;61094;51.154;13.570;2022-08-05T12:16:45;38.80;29.30
72940;DHT22;61094;51.154;13.570;2022-08-05T12:19:13;38.80;29.20
72940;DHT22;61094;51.154;13.570;2022-08-05T12:21:45;38.80;29.00
72940;DHT22;61094;51.154;13.570;2022-08-05T12:24:14;38.80;29.00
72940;DHT22;61094;51.154;13.570;2022-08-05T12:26:43;38.90;29.20
72940;DHT22;61094;51.154;13.570;2022-08-05T12:29:12;38.80;29.10
72940;DHT22;61094;51.154;13.570;2022-08-05T12:31:43;38.60;29.20
72940;DHT22;61094;51.154;13.570;2022-08-05T12:34:10;38.40;29.20
72940;DHT22;61094;51.154;13.570;2022-08-05T12:36:37;38.10;29.30
72940;DHT22;61094;51.154;13.570;2022-08-05T12:39:05;37.90;29.40
72940;DHT22;61094;51.154;13.570;2022-08-05T12:41:33;38.00;29.60
72940;DHT22;61094;51.154;13.570;2022-08-05T12:44:02;38.00;29.30
72940;DHT22;61094;51.154;13.570;2022-08-05T12:46:32;38.20;29.30
72940;DHT22;61094;51.154;13.570;2022-08-05T12:49:01;38.30;29.00
72940;DHT22;61094;51.154;13.570;2022-08-05T12:51:28;38.50;29.10
72940;DHT22;61094;51.154;13.570;2022-08-05T12:54:00;38.50;28.70
72940;DHT22;61094;51.154;13.570;2022-08-05T12:56:28;38.50;28.30
72940;DHT22;61094;51.154;13.570;2022-08-05T12:59:16;38.40;28.70
72940;DHT22;61094;51.154;13.570;2022-08-05T13:01:52;38.20;28.30
72940;DHT22;61094;51.154;13.570;2022-08-05T13:04:20;38.00;27.80
72940;DHT22;61094;51.154;13.570;2022-08-05T13:06:47;37.90;28.70
72940;DHT22;61094;51.154;13.570;2022-08-05T13:09:14;37.80;28.80
72940;DHT22;61094;51.154;13.570;2022-08-05T13:11:42;37.70;28.60
72940;DHT22;61094;51.154;13.570;2022-08-05T13:14:17;37.60;28.60
72940;DHT22;61094;51.154;13.570;2022-08-05T13:16:50;37.50;28.70
72940;DHT22;61094;51.154;13.570;2022-08-05T13:19:20;37.30;28.60
72940;DHT22;61094;51.154;13.570;2022-08-05T13:21:47;37.30;28.90
72940;DHT22;61094;51.154;13.570;2022-08-05T13:24:14;37.20;29.00
72940;DHT22;61094;51.154;13.570;2022-08-05T13:26:41;37.30;29.00
72940;DHT22;61094;51.154;13.570;2022-08-05T13:29:08;37.40;28.80
72940;DHT22;61094;51.154;13.570;2022-08-05T13:31:35;37.50;28.40
72940;DHT22;61094;51.154;13.570;2022-08-05T13:34:03;37.50;28.40
72940;DHT22;61094;51.154;13.570;2022-08-05T13:36:30;37.60;28.60
72940;DHT22;61094;51.154;13.570;2022-08-05T13:38:57;37.70;28.50
72940;DHT22;61094;51.154;13.570;2022-08-05T13:41:24;37.90;28.50
72940;DHT22;61094;51.154;13.570;2022-08-05T13:43:51;38.00;28.40
72940;DHT22;61094;51.154;13.570;2022-08-05T13:46:17;38.20;28.30
72940;DHT22;61094;51.154;13.570;2022-08-05T13:48:44;38.30;28.10
72940;DHT22;61094;51.154;13.570;2022-08-05T13:51:12;38.40;28.20
72940;DHT22;61094;51.154;13.570;2022-08-05T13:53:39;38.50;28.10
72940;DHT22;61094;51.154;13.570;2022-08-05T13:56:07;38.60;28.00
72940;DHT22;61094;51.154;13.570;2022-08-05T13:58:34;38.60;28.00
72940;DHT22;61094;51.154;13.570;2022-08-05T14:01:01;38.60;28.00
72940;DHT22;61094;51.154;13.570;2022-08-05T14:03:27;38.50;27.70
72940;DHT22;61094;51.154;13.570;2022-08-05T14:05:54;38.50;27.90
72940;DHT22;61094;51.154;13.570;2022-08-05T14:08:22;38.50;27.90
72940;DHT22;61094;51.154;13.570;2022-08-05T14:10:48;38.40;27.80
72940;DHT22;61094;51.154;13.570;2022-08-05T14:13:15;38.40;27.80
72940;DHT22;61094;51.154;13.570;2022-08-05T14:15:42;38.20;27.80
72940;DHT22;61094;51.154;13.570;2022-08-05T14:18:08;38.10;28.00
72940;DHT22;61094;51.154;13.570;2022-08-05T14:20:35;38.10;27.90
72940;DHT22;61094;51.154;13.570;2022-08-05T14:23:01;37.90;27.90
72940;DHT22;61094;51.154;13.570;2022-08-05T14:25:29;37.90;28.00
72940;DHT22;61094;51.154;13.570;2022-08-05T14:27:56;37.80;28.00
72940;DHT22;61094;51.154;13.570;2022-08-05T14:30:24;37.80;28.00
72940;DHT22;61094;51.154;13.570;2022-08-05T14:32:50;37.70;28.00
72940;DHT22;61094;51.154;13.570;2022-08-05T14:35:17;37.60;28.10
72940;DHT22;61094;51.154;13.570;2022-08-05T14:37:44;37.60;28.10
72940;DHT22;61094;51.154;13.570;2022-08-05T14:40:11;37.40;28.20
72940;DHT22;61094;51.154;13.570;2022-08-05T14:42:39;37.50;28.30
72940;DHT22;61094;51.154;13.570;2022-08-05T14:45:07;37.50;28.30
72940;DHT22;61094;51.154;13.570;2022-08-05T14:47:34;37.40;28.20
72940;DHT22;61094;51.154;13.570;2022-08-05T14:50:01;37.40;28.30
72940;DHT22;61094;51.154;13.570;2022-08-05T14:52:27;37.40;28.20
72940;DHT22;61094;51.154;13.570;2022-08-05T14:54:54;37.40;28.30
72940;DHT22;61094;51.154;13.570;2022-08-05T14:57:21;37.50;28.30
72940;DHT22;61094;51.154;13.570;2022-08-05T14:59:49;37.50;28.30
72940;DHT22;61094;51.154;13.570;2022-08-05T15:02:15;37.50;28.20
72940;DHT22;61094;51.154;13.570;2022-08-05T15:04:42;37.50;28.30
72940;DHT22;61094;51.154;13.570;2022-08-05T15:07:09;37.40;28.30
72940;DHT22;61094;51.154;13.570;2022-08-05T15:09:35;37.30;28.20
72940;DHT22;61094;51.154;13.570;2022-08-05T15:12:02;37.30;28.20
72940;DHT22;61094;51.154;13.570;2022-08-05T15:14:29;37.30;28.20
72940;DHT22;61094;51.154;13.570;2022-08-05T15:16:57;37.30;28.30
72940;DHT22;61094;51.154;13.570;2022-08-05T15:19:24;37.20;28.00
72940;DHT22;61094;51.154;13.570;2022-08-05T15:21:50;37.20;28.20
72940;DHT22;61094;51.154;13.570;2022-08-05T15:24:17;37.20;28.30